Time,TemperatureF,DewpointF,PressureIn,WindDirection,WindDirectionDegrees,WindSpeedMPH,WindSpeedGustMPH,Humidity,HourlyPrecipIn,Conditions,Clouds,dailyrainin,SoftwareType,DateUTC
2013-05-17 00:03:00,64.0,55.0,29.93,SSE,160,5.0,-999.0,72,-99.99,,,-99.99,,2013-05-17 05:03:00,
2013-05-17 00:14:00,64.0,55.0,29.93,SSE,160,5.0,-999.0,72,-99.99,,,-99.99,,2013-05-17 05:14:00,
2013-05-17 00:22:00,64.0,55.0,29.92,South,170,6.0,-999.0,72,-99.99,,,-99.99,,2013-05-17 05:22:00,
2013-05-17 00:32:00,63.0,55.0,29.92,SSE,160,5.0,-999.0,77,-99.99,,,-99.99,,2013-05-17 05:32:00,
2013-05-17 00:42:00,64.0,55.0,29.92,SSE,160,5.0,-999.0,72,-99.99,,,-99.99,,2013-05-17 05:42:00,
2013-05-17 00:52:00,63.0,55.0,29.92,South,170,5.0,-999.0,77,-99.99,,,-99.99,,2013-05-17 05:52:00,
2013-05-17 01:02:00,63.0,54.0,29.92,South,170,5.0,-999.0,72,-99.99,,,-99.99,,2013-05-17 06:02:00,
2013-05-17 01:11:00,63.0,54.0,29.92,South,170,5.0,-999.0,72,-99.99,,,-99.99,,2013-05-17 06:11:00,
2013-05-17 01:21:00,63.0,54.0,29.93,South,180,5.0,-999.0,72,-99.99,,,-99.99,,2013-05-17 06:21:00,
2013-05-17 01:32:00,63.0,54.0,29.93,South,180,5.0,-999.0,72,-99.99,,,-99.99,,2013-05-17 06:32:00,
2013-05-17 01:42:00,61.0,52.0,29.93,SE,140,3.0,-999.0,72,-99.99,,,-99.99,,2013-05-17 06:42:00,
2013-05-17 01:52:00,63.0,52.0,29.93,SSE,150,5.0,-999.0,67,-99.99,,,-99.99,,2013-05-17 06:52:00,
2013-05-17 02:02:00,63.0,52.0,29.93,SSE,150,5.0,-999.0,67,-99.99,,,-99.99,,2013-05-17 07:02:00,
2013-05-17 02:11:00,63.0,52.0,29.93,SSE,150,5.0,-999.0,67,-99.99,,,-99.99,,2013-05-17 07:11:00,
2013-05-17 02:21:00,63.0,52.0,29.93,SSE,160,3.0,-999.0,67,-99.99,,,-99.99,,2013-05-17 07:21:00,
2013-05-17 02:32:00,63.0,52.0,29.93,SSE,150,3.0,-999.0,67,-99.99,,,-99.99,,2013-05-17 07:32:00,
2013-05-17 02:43:00,63.0,52.0,29.93,SE,140,3.0,-999.0,67,-99.99,,,-99.99,,2013-05-17 07:43:00,
2013-05-17 02:53:00,61.0,52.0,29.93,North,0,0.0,-999.0,72,-99.99,,,-99.99,,2013-05-17 07:53:00,
2013-05-17 03:02:00,61.0,52.0,29.93,North,0,0.0,-999.0,72,-99.99,,,-99.99,,2013-05-17 08:02:00,
2013-05-17 03:12:00,61.0,52.0,29.93,North,0,0.0,-999.0,72,-99.99,,,-99.99,,2013-05-17 08:12:00,
2013-05-17 03:22:00,61.0,52.0,29.92,SE,140,3.0,-999.0,72,-99.99,,,-99.99,,2013-05-17 08:22:00,
2013-05-17 03:33:00,61.0,52.0,29.92,SE,140,5.0,-999.0,72,-99.99,,,-99.99,,2013-05-17 08:33:00,
2013-05-17 03:42:00,63.0,50.0,29.92,SE,140,5.0,-999.0,63,-99.99,,,-99.99,,2013-05-17 08:42:00,
2013-05-17 03:52:00,61.0,50.0,29.93,North,0,0.0,-999.0,67,-99.99,,,-99.99,,2013-05-17 08:52:00,
2013-05-17 04:02:00,61.0,52.0,29.93,North,0,0.0,-999.0,72,-99.99,,,-99.99,,2013-05-17 09:02:00,
2013-05-17 04:12:00,61.0,52.0,29.93,North,0,0.0,-999.0,72,-99.99,,,-99.99,,2013-05-17 09:12:00,
2013-05-17 04:22:00,59.0,54.0,29.93,North,0,0.0,-999.0,82,-99.99,,,-99.99,,2013-05-17 09:22:00,
2013-05-17 04:33:00,59.0,54.0,29.93,North,0,0.0,-999.0,82,-99.99,,,-99.99,,2013-05-17 09:33:00,
2013-05-17 04:42:00,59.0,55.0,29.93,East,100,3.0,-999.0,87,-99.99,,,-99.99,,2013-05-17 09:42:00,
2013-05-17 04:53:00,61.0,54.0,29.92,East,100,3.0,-999.0,77,-99.99,,,-99.99,,2013-05-17 09:53:00,
2013-05-17 05:03:00,63.0,52.0,29.92,East,100,3.0,-999.0,67,-99.99,,,-99.99,,2013-05-17 10:03:00,
2013-05-17 05:12:00,63.0,52.0,29.92,East,100,3.0,-999.0,67,-99.99,,,-99.99,,2013-05-17 10:12:00,
2013-05-17 05:23:00,63.0,50.0,29.92,ESE,110,3.0,-999.0,63,-99.99,,,-99.99,,2013-05-17 10:23:00,
2013-05-17 05:33:00,64.0,50.0,29.93,North,0,0.0,-999.0,59,-99.99,,,-99.99,,2013-05-17 10:33:00,
2013-05-17 05:42:00,64.0,52.0,29.93,North,0,0.0,-999.0,63,-99.99,,,-99.99,,2013-05-17 10:42:00,
2013-05-17 05:54:00,64.0,52.0,29.93,North,0,0.0,-999.0,63,-99.99,,,-99.99,,2013-05-17 10:54:00,
2013-05-17 06:02:00,63.0,54.0,29.93,North,0,0.0,-999.0,72,-99.99,,,-99.99,,2013-05-17 11:02:00,
2013-05-17 06:12:00,63.0,54.0,29.93,North,0,0.0,-999.0,72,-99.99,,,-99.99,,2013-05-17 11:12:00,
2013-05-17 06:22:00,63.0,54.0,29.94,North,0,0.0,-999.0,72,-99.99,,,-99.99,,2013-05-17 11:22:00,
2013-05-17 06:34:00,64.0,54.0,29.94,North,0,0.0,-999.0,67,-99.99,,,-99.99,,2013-05-17 11:34:00,
2013-05-17 06:42:00,63.0,55.0,29.94,North,0,0.0,-999.0,77,-99.99,,,-99.99,,2013-05-17 11:42:00,
2013-05-17 06:53:00,64.0,55.0,29.95,North,0,0.0,-999.0,72,-99.99,,,-99.99,,2013-05-17 11:53:00,
2013-05-17 07:03:00,64.0,55.0,29.95,East,100,3.0,-999.0,72,-99.99,,,-99.99,,2013-05-17 12:03:00,
2013-05-17 07:12:00,64.0,55.0,29.95,East,100,3.0,-999.0,72,-99.99,,,-99.99,,2013-05-17 12:12:00,
2013-05-17 07:23:00,64.0,55.0,29.96,ESE,110,3.0,-999.0,72,-99.99,,,-99.99,,2013-05-17 12:23:00,
2013-05-17 07:32:00,64.0,57.0,29.96,East,90,3.0,-999.0,77,-99.99,,,-99.99,,2013-05-17 12:32:00,
2013-05-17 07:43:00,66.0,55.0,29.97,ESE,110,3.0,-999.0,68,-99.99,,,-99.99,,2013-05-17 12:43:00,
2013-05-17 07:53:00,66.0,57.0,29.96,ESE,120,3.0,-999.0,72,-99.99,,,-99.99,,2013-05-17 12:53:00,
2013-05-17 08:03:00,66.0,57.0,29.96,ESE,110,3.0,-999.0,72,-99.99,,,-99.99,,2013-05-17 13:03:00,
2013-05-17 08:12:00,66.0,57.0,29.96,ESE,110,3.0,-999.0,72,-99.99,,,-99.99,,2013-05-17 13:12:00,
2013-05-17 08:23:00,68.0,57.0,29.97,ESE,110,6.0,-999.0,68,-99.99,,,-99.99,,2013-05-17 13:23:00,
2013-05-17 08:33:00,70.0,57.0,29.97,East,100,5.0,-999.0,64,-99.99,,,-99.99,,2013-05-17 13:33:00,
2013-05-17 08:42:00,68.0,57.0,29.97,North,0,0.0,-999.0,68,-99.99,,,-99.99,,2013-05-17 13:42:00,
2013-05-17 08:52:00,70.0,57.0,29.97,ESE,120,5.0,-999.0,64,-99.99,,,-99.99,,2013-05-17 13:52:00,
2013-05-17 09:02:00,72.0,57.0,29.97,ESE,120,3.0,-999.0,60,-99.99,,,-99.99,,2013-05-17 14:02:00,
2013-05-17 09:13:00,72.0,57.0,29.97,ESE,120,3.0,-999.0,60,-99.99,,,-99.99,,2013-05-17 14:13:00,
2013-05-17 09:22:00,72.0,59.0,29.97,ESE,120,6.0,-999.0,64,-99.99,,,-99.99,,2013-05-17 14:22:00,
2013-05-17 09:34:00,72.0,57.0,29.97,SE,140,5.0,-999.0,60,-99.99,,,-99.99,,2013-05-17 14:34:00,
2013-05-17 09:43:00,73.0,59.0,29.97,SE,140,3.0,-999.0,60,-99.99,,,-99.99,,2013-05-17 14:43:00,
2013-05-17 09:53:00,73.0,59.0,29.97,SE,130,5.0,-999.0,60,-99.99,,,-99.99,,2013-05-17 14:53:00,
2013-05-17 10:03:00,73.0,59.0,29.97,SSE,160,3.0,-999.0,60,-99.99,,,-99.99,,2013-05-17 15:03:00,
2013-05-17 10:14:00,73.0,59.0,29.97,SSE,160,3.0,-999.0,60,-99.99,,,-99.99,,2013-05-17 15:14:00,
2013-05-17 10:25:00,73.0,59.0,29.97,SE,140,7.0,-999.0,60,-99.99,,,-99.99,,2013-05-17 15:25:00,
2013-05-17 10:37:00,73.0,59.0,29.97,SE,140,6.0,-999.0,60,-99.99,,,-99.99,,2013-05-17 15:37:00,
2013-05-17 10:47:00,73.0,59.0,29.97,SSE,150,5.0,-999.0,60,-99.99,,,-99.99,,2013-05-17 15:47:00,
2013-05-17 10:57:00,73.0,59.0,29.97,South,190,7.0,-999.0,60,-99.99,,,-99.99,,2013-05-17 15:57:00,
2013-05-17 11:07:00,73.0,61.0,29.97,South,170,6.0,-999.0,64,-99.99,,,-99.99,,2013-05-17 16:07:00,
2013-05-17 11:13:00,73.0,61.0,29.97,South,170,6.0,-999.0,64,-99.99,,,-99.99,,2013-05-17 16:13:00,
2013-05-17 11:26:00,73.0,61.0,29.98,SSW,200,3.0,-999.0,64,-99.99,,,-99.99,,2013-05-17 16:26:00,
2013-05-17 11:37:00,73.0,61.0,29.98,SE,140,5.0,-999.0,64,-99.99,,,-99.99,,2013-05-17 16:37:00,
2013-05-17 11:49:00,73.0,61.0,29.98,South,170,5.0,-999.0,64,-99.99,,,-99.99,,2013-05-17 16:49:00,
2013-05-17 11:56:00,73.0,61.0,29.97,SSE,150,5.0,-999.0,64,-99.99,,,-99.99,,2013-05-17 16:56:00,
2013-05-17 12:08:00,75.0,61.0,29.97,SSE,150,6.0,-999.0,60,-99.99,,,-99.99,,2013-05-17 17:08:00,
2013-05-17 12:18:00,75.0,61.0,29.97,SSE,150,6.0,-999.0,60,-99.99,,,-99.99,,2013-05-17 17:18:00,
2013-05-17 12:29:00,75.0,61.0,29.97,SSE,150,3.0,-999.0,60,-99.99,,,-99.99,,2013-05-17 17:29:00,
2013-05-17 12:40:00,75.0,-99.9,29.97,ESE,120,3.0,-999.0,60,-99.99,,,-99.99,,2013-05-17 17:40:00,
2013-05-17 12:49:00,77.0,61.0,29.97,South,180,6.0,-999.0,57,-99.99,,,-99.99,,2013-05-17 17:49:00,
2013-05-17 13:00:00,75.0,61.0,29.96,South,190,5.0,-999.0,60,-99.99,,,-99.99,,2013-05-17 18:00:00,
2013-05-17 13:09:00,77.0,61.0,29.96,SSE,160,7.0,-999.0,57,-99.99,,,-99.99,,2013-05-17 18:09:00,
2013-05-17 13:20:00,77.0,61.0,29.96,SSE,160,7.0,-999.0,57,-99.99,,,-99.99,,2013-05-17 18:20:00,
2013-05-17 13:30:00,77.0,59.0,29.95,ESE,120,7.0,-999.0,53,-99.99,,,-99.99,,2013-05-17 18:30:00,
2013-05-17 13:40:00,79.0,-99.9,29.95,SSE,150,8.0,-999.0,54,-99.99,,,-99.99,,2013-05-17 18:40:00,
2013-05-17 13:50:00,-999.0,-99.9,29.95,SE,140,6.0,-999.0,50,-99.99,,,-99.99,,2013-05-17 18:50:00,
2013-05-17 14:00:00,79.0,-99.9,29.94,SSE,150,5.0,-999.0,50,-99.99,,,-99.99,,2013-05-17 19:00:00,
2013-05-17 14:10:00,77.0,59.0,29.94,SE,140,6.0,-999.0,53,-99.99,,,-99.99,,2013-05-17 19:10:00,
2013-05-17 14:20:00,77.0,59.0,29.94,SE,140,6.0,-999.0,53,-99.99,,,-99.99,,2013-05-17 19:20:00,
2013-05-17 14:30:00,77.0,61.0,29.94,East,100,6.0,-999.0,57,-99.99,,,-99.99,,2013-05-17 19:30:00,
2013-05-17 14:40:00,75.0,61.0,29.94,North,0,0.0,-999.0,60,-99.99,,,-99.99,,2013-05-17 19:40:00,
2013-05-17 14:50:00,75.0,61.0,29.94,North,0,0.0,-999.0,60,-99.99,,,-99.99,,2013-05-17 19:50:00,
2013-05-17 15:01:00,-999.0,-99.9,29.94,North,0,0.0,-999.0,60,-99.99,,,-99.99,,2013-05-17 20:01:00,
2013-05-17 15:09:00,75.0,61.0,29.94,North,0,0.0,-999.0,60,-99.99,,,-99.99,,2013-05-17 20:09:00,
2013-05-17 15:20:00,75.0,61.0,29.94,North,0,0.0,-999.0,60,-99.99,,,-99.99,,2013-05-17 20:20:00,
2013-05-17 15:30:00,75.0,61.0,29.94,ESE,120,6.0,-999.0,60,-99.99,,,-99.99,,2013-05-17 20:30:00,
2013-05-17 15:40:00,77.0,61.0,29.94,ESE,120,3.0,-999.0,57,-99.99,,,-99.99,,2013-05-17 20:40:00,
2013-05-17 15:49:00,77.0,61.0,29.93,SE,130,5.0,-999.0,57,-99.99,,,-99.99,,2013-05-17 20:49:00,
2013-05-17 15:58:00,75.0,61.0,29.93,ESE,120,5.0,-999.0,60,-99.99,,,-99.99,,2013-05-17 20:58:00,
2013-05-17 16:07:00,77.0,61.0,29.93,ESE,110,3.0,-999.0,57,-99.99,,,-99.99,,2013-05-17 21:07:00,
2013-05-17 16:16:00,77.0,61.0,29.93,ESE,110,3.0,-999.0,57,-99.99,,,-99.99,,2013-05-17 21:16:00,
2013-05-17 16:26:00,79.0,61.0,29.93,SE,140,7.0,-999.0,54,-99.99,,,-99.99,,2013-05-17 21:26:00,
2013-05-17 16:39:00,77.0,61.0,29.93,ESE,110,7.0,-999.0,57,-99.99,,,-99.99,,2013-05-17 21:39:00,
2013-05-17 16:49:00,77.0,61.0,29.93,ESE,110,5.0,-999.0,57,-99.99,,,-99.99,,2013-05-17 21:49:00,
2013-05-17 16:58:00,75.0,61.0,29.93,East,100,5.0,-999.0,60,-99.99,,,-99.99,,2013-05-17 21:58:00,
2013-05-17 17:07:00,77.0,61.0,29.92,ESE,110,5.0,-999.0,57,-99.99,,,-99.99,,2013-05-17 22:07:00,
2013-05-17 17:17:00,77.0,61.0,29.92,ESE,110,5.0,-999.0,57,-99.99,,,-99.99,,2013-05-17 22:17:00,
2013-05-17 17:28:00,75.0,61.0,29.92,ESE,120,6.0,-999.0,60,-99.99,,,-99.99,,2013-05-17 22:28:00,
2013-05-17 17:38:00,73.0,61.0,29.92,ESE,120,5.0,-999.0,64,-99.99,,,-99.99,,2013-05-17 22:38:00,
2013-05-17 17:47:00,73.0,63.0,29.92,East,100,3.0,-999.0,68,-99.99,,,-99.99,,2013-05-17 22:47:00,
2013-05-17 17:55:00,75.0,63.0,29.92,East,100,3.0,-999.0,64,-99.99,,,-99.99,,2013-05-17 22:55:00,
2013-05-17 18:04:00,75.0,61.0,29.92,ESE,110,3.0,-999.0,60,-99.99,,,-99.99,,2013-05-17 23:04:00,
2013-05-17 18:13:00,75.0,61.0,29.92,ESE,110,3.0,-999.0,60,-99.99,,,-99.99,,2013-05-17 23:13:00,
2013-05-17 18:23:00,79.0,61.0,29.92,ESE,110,5.0,-999.0,54,-99.99,,,-99.99,,2013-05-17 23:23:00,
2013-05-17 18:37:00,79.0,61.0,29.92,ESE,110,7.0,-999.0,54,-99.99,,,-99.99,,2013-05-17 23:37:00,
2013-05-17 18:47:00,79.0,61.0,29.92,East,100,6.0,-999.0,54,-99.99,,,-99.99,,2013-05-17 23:47:00,
2013-05-17 18:54:00,77.0,61.0,29.92,ESE,120,6.0,-999.0,57,-99.99,,,-99.99,,2013-05-17 23:54:00,
2013-05-17 19:02:00,77.0,61.0,29.92,SE,130,6.0,-999.0,57,-99.99,,,-99.99,,2013-05-18 00:02:00,
2013-05-17 19:14:00,77.0,61.0,29.92,SE,130,6.0,-999.0,57,-99.99,,,-99.99,,2013-05-18 00:14:00,
2013-05-17 19:21:00,77.0,63.0,29.92,ESE,110,3.0,-999.0,61,-99.99,,,-99.99,,2013-05-18 00:21:00,
2013-05-17 19:33:00,77.0,63.0,29.92,SE,130,5.0,-999.0,61,-99.99,,,-99.99,,2013-05-18 00:33:00,
2013-05-17 19:44:00,77.0,63.0,29.92,SE,130,3.0,-999.0,61,-99.99,,,-99.99,,2013-05-18 00:44:00,
2013-05-17 19:54:00,75.0,63.0,29.92,SE,130,5.0,-999.0,64,-99.99,,,-99.99,,2013-05-18 00:54:00,
2013-05-17 20:02:00,75.0,63.0,29.92,SE,140,3.0,-999.0,64,-99.99,,,-99.99,,2013-05-18 01:02:00,
2013-05-17 20:13:00,75.0,63.0,29.92,SE,140,3.0,-999.0,64,-99.99,,,-99.99,,2013-05-18 01:13:00,
2013-05-17 20:24:00,73.0,59.0,29.93,ESE,120,3.0,-999.0,60,-99.99,,,-99.99,,2013-05-18 01:24:00,
2013-05-17 20:32:00,73.0,59.0,29.93,North,0,0.0,-999.0,60,-99.99,,,-99.99,,2013-05-18 01:32:00,
2013-05-17 20:42:00,72.0,59.0,29.93,North,0,0.0,-999.0,64,-99.99,,,-99.99,,2013-05-18 01:42:00,
2013-05-17 20:52:00,72.0,59.0,29.93,North,0,0.0,-999.0,64,-99.99,,,-99.99,,2013-05-18 01:52:00,
2013-05-17 21:02:00,72.0,61.0,29.93,North,0,0.0,-999.0,68,-99.99,,,-99.99,,2013-05-18 02:02:00,
2013-05-17 21:12:00,72.0,61.0,29.93,North,0,0.0,-999.0,68,-99.99,,,-99.99,,2013-05-18 02:12:00,
2013-05-17 21:22:00,70.0,61.0,29.94,North,0,0.0,-999.0,73,-99.99,,,-99.99,,2013-05-18 02:22:00,
2013-05-17 21:31:00,68.0,61.0,29.95,North,0,0.0,-999.0,77,-99.99,,,-99.99,,2013-05-18 02:31:00,
2013-05-17 21:42:00,68.0,61.0,29.95,ESE,120,3.0,-999.0,77,-99.99,,,-99.99,,2013-05-18 02:42:00,
2013-05-17 21:54:00,68.0,61.0,29.96,ESE,120,3.0,-999.0,77,-99.99,,,-99.99,,2013-05-18 02:54:00,
2013-05-17 22:02:00,70.0,61.0,29.96,ESE,120,3.0,-999.0,73,-99.99,,,-99.99,,2013-05-18 03:02:00,
2013-05-17 22:12:00,70.0,61.0,29.96,ESE,120,3.0,-999.0,73,-99.99,,,-99.99,,2013-05-18 03:12:00,
2013-05-17 22:22:00,70.0,61.0,29.96,ESE,110,3.0,-999.0,73,-99.99,,,-99.99,,2013-05-18 03:22:00,
2013-05-17 22:32:00,70.0,63.0,29.96,ESE,120,5.0,-999.0,77,-99.99,,,-99.99,,2013-05-18 03:32:00,
2013-05-17 22:43:00,70.0,61.0,29.97,SE,130,5.0,-999.0,73,-99.99,,,-99.99,,2013-05-18 03:43:00,
2013-05-17 22:53:00,68.0,61.0,29.97,ESE,120,3.0,-999.0,77,-99.99,,,-99.99,,2013-05-18 03:53:00,
2013-05-17 23:02:00,68.0,63.0,29.96,ESE,120,3.0,-999.0,82,-99.99,,,-99.99,,2013-05-18 04:02:00,
2013-05-17 23:12:00,68.0,63.0,29.96,ESE,120,3.0,-999.0,82,-99.99,,,-99.99,,2013-05-18 04:12:00,
2013-05-17 23:23:00,68.0,63.0,29.97,ESE,110,3.0,-999.0,82,-99.99,,,-99.99,,2013-05-18 04:23:00,
2013-05-17 23:33:00,68.0,63.0,29.97,North,0,0.0,-999.0,82,-99.99,,,-99.99,,2013-05-18 04:33:00,
2013-05-17 23:42:00,68.0,63.0,29.96,North,0,0.0,-999.0,82,-99.99,,,-99.99,,2013-05-18 04:42:00,
2013-05-17 23:52:00,68.0,63.0,29.96,North,0,0.0,-999.0,82,-99.99,,,-99.99,,2013-05-18 04:52:00,